Time;durP1;ratioP1;P1;durP2;ratioP2;P2;SDS_P1;SDS_P2;PMS_P1;PMS_P2;Temp;Humidity;BMP_temperature;BMP_pressure;BME280_temperature;BME280_humidity;BME280_pressure;Samples;Min_cycle;Max_cycle;Signal;HPM_P1;HPM_P2
2022/07/06 00:01:32;;;;;;;7.88;6.55;;;18.20;99.90;;;;;;5022498;28;20236;-75
2022/07/06 00:04:21;;;;;;;7.05;6.03;;;18.20;99.90;;;;;;5026480;28;20220;-76
2022/07/06 00:07:13;;;;;;;6.57;6.05;;;18.20;99.90;;;;;;5020192;28;20240;-76
2022/07/06 00:10:02;;;;;;;6.90;5.90;;;18.20;99.90;;;;;;5017220;28;20635;-76
2022/07/06 00:12:51;;;;;;;7.70;6.90;;;18.20;99.90;;;;;;5018636;28;20459;-77
2022/07/06 00:15:39;;;;;;;6.90;6.22;;;18.20;99.90;;;;;;4996330;28;20217;-77
2022/07/06 00:18:28;;;;;;;8.00;7.20;;;18.10;99.90;;;;;;5017997;28;20819;-76
2022/07/06 00:21:16;;;;;;;8.77;6.03;;;18.20;99.90;;;;;;5009314;28;20237;-75
2022/07/06 00:24:07;;;;;;;7.05;6.35;;;18.10;99.90;;;;;;5019560;28;20367;-76
2022/07/06 00:26:56;;;;;;;9.38;6.80;;;18.10;99.90;;;;;;5020009;28;20225;-77
2022/07/06 00:29:45;;;;;;;7.68;6.93;;;18.20;99.90;;;;;;5018067;28;20214;-79
2022/07/06 00:32:34;;;;;;;7.10;6.40;;;18.10;99.90;;;;;;5004026;28;20221;-79
2022/07/06 00:35:23;;;;;;;8.75;7.07;;;18.00;99.90;;;;;;5030790;28;20222;-80
2022/07/06 00:38:11;;;;;;;8.80;7.72;;;18.00;99.90;;;;;;5010524;28;20258;-78
2022/07/06 00:41:06;;;;;;;7.28;6.57;;;18.10;99.90;;;;;;4991533;28;20221;-78
2022/07/06 00:43:56;;;;;;;7.65;6.53;;;18.10;99.90;;;;;;5009934;28;20236;-78
2022/07/06 00:46:44;;;;;;;7.53;6.40;;;18.00;99.90;;;;;;5003149;28;20228;-77
2022/07/06 00:52:47;;;;;;;5.82;5.20;;;18.00;99.90;;;;;;5005334;28;20249;-78
2022/07/06 00:55:39;;;;;;;5.57;5.07;;;18.00;99.90;;;;;;5026318;28;20239;-78
2022/07/06 00:58:29;;;;;;;8.98;5.40;;;17.90;99.90;;;;;;5014923;28;20228;-78
2022/07/06 01:01:18;;;;;;;6.80;5.85;;;17.90;99.90;;;;;;4998874;28;20224;-78
2022/07/06 01:04:07;;;;;;;5.97;5.38;;;17.90;99.90;;;;;;4992251;28;20307;-78
2022/07/06 01:06:57;;;;;;;6.35;5.75;;;17.80;99.90;;;;;;5006128;28;20272;-77
2022/07/06 01:09:46;;;;;;;7.70;6.53;;;17.90;99.90;;;;;;5020200;28;20210;-78
2022/07/06 01:12:36;;;;;;;7.85;6.15;;;17.90;99.90;;;;;;5022286;28;20233;-79
2022/07/06 01:15:26;;;;;;;9.18;5.70;;;17.90;99.90;;;;;;5005553;28;20252;-78
2022/07/06 01:18:15;;;;;;;6.90;5.60;;;17.80;99.90;;;;;;5013623;28;20221;-78
2022/07/06 01:21:16;;;;;;;6.38;4.95;;;17.80;99.90;;;;;;5019664;28;20361;-79
2022/07/06 01:24:05;;;;;;;5.63;4.65;;;17.90;99.90;;;;;;5009810;28;20228;-77
2022/07/06 01:26:53;;;;;;;5.18;4.63;;;17.80;99.90;;;;;;5012227;28;20726;-78
2022/07/06 01:29:42;;;;;;;5.45;4.95;;;17.70;99.90;;;;;;5009868;28;20216;-78
2022/07/06 01:32:30;;;;;;;5.35;4.85;;;17.70;99.90;;;;;;5013435;28;20221;-78
2022/07/06 01:35:19;;;;;;;7.45;5.60;;;17.70;99.90;;;;;;5025562;28;20221;-78
2022/07/06 01:38:09;;;;;;;6.63;4.88;;;17.70;99.90;;;;;;5020421;28;20221;-78
2022/07/06 01:40:58;;;;;;;6.70;4.75;;;17.70;99.90;;;;;;5024165;28;20237;-78
2022/07/06 01:43:47;;;;;;;7.20;4.45;;;17.60;99.90;;;;;;5009431;28;20236;-80
2022/07/06 01:46:37;;;;;;;6.10;4.70;;;;;;;;;;5022541;28;20236;-78
2022/07/06 01:49:26;;;;;;;5.97;4.53;;;17.70;99.90;;;;;;5011239;28;20343;-79
2022/07/06 01:52:15;;;;;;;4.63;4.20;;;17.60;99.90;;;;;;5016065;28;20714;-78
2022/07/06 01:55:07;;;;;;;5.72;4.38;;;17.60;99.90;;;;;;5029250;28;20379;-75
2022/07/06 01:57:57;;;;;;;6.75;5.03;;;17.60;99.90;;;;;;5019801;28;20219;-77
2022/07/06 02:00:47;;;;;;;5.05;4.55;;;17.60;99.90;;;;;;5009215;28;20244;-78
2022/07/06 02:03:36;;;;;;;7.18;5.22;;;17.60;99.90;;;;;;5019900;28;20787;-79
2022/07/06 02:06:29;;;;;;;6.18;5.57;;;17.70;99.90;;;;;;5014324;28;20618;-79
2022/07/06 02:09:17;;;;;;;6.63;5.30;;;17.60;99.90;;;;;;5022296;28;20225;-79
2022/07/06 02:12:08;;;;;;;5.60;5.10;;;17.70;99.90;;;;;;5008739;28;20218;-80
2022/07/06 02:14:57;;;;;;;4.60;4.20;;;17.70;99.90;;;;;;5011752;28;20911;-80
2022/07/06 02:17:45;;;;;;;5.75;5.15;;;17.60;99.90;;;;;;5010993;28;20584;-79
2022/07/06 02:20:34;;;;;;;5.53;5.03;;;17.70;99.90;;;;;;5019841;28;20231;-80
2022/07/06 02:23:23;;;;;;;5.55;4.55;;;17.80;99.90;;;;;;5015668;28;20225;-78
2022/07/06 02:26:13;;;;;;;8.02;4.40;;;17.80;99.90;;;;;;5006744;28;20364;-78
2022/07/06 02:29:03;;;;;;;4.82;4.32;;;17.70;99.90;;;;;;5020323;28;20233;-78
2022/07/06 02:31:52;;;;;;;4.65;3.72;;;17.70;99.90;;;;;;5007774;28;20222;-78
2022/07/06 02:34:42;;;;;;;6.70;4.40;;;17.60;99.90;;;;;;5011986;28;20233;-78
2022/07/06 02:37:30;;;;;;;4.70;4.30;;;17.60;99.90;;;;;;5010192;28;20291;-78
2022/07/06 02:40:22;;;;;;;5.07;4.60;;;17.60;99.90;;;;;;5018712;28;20230;-79
2022/07/06 02:43:11;;;;;;;7.30;4.68;;;17.70;99.90;;;;;;5006276;28;20229;-81
2022/07/06 02:46:02;;;;;;;7.25;4.82;;;17.60;99.90;;;;;;5005631;28;20252;-82
2022/07/06 02:48:52;;;;;;;5.78;4.22;;;17.60;99.90;;;;;;5018238;28;20573;-78
2022/07/06 02:51:41;;;;;;;6.50;4.25;;;17.60;99.90;;;;;;5021754;28;20731;-79
2022/07/06 02:54:31;;;;;;;6.25;4.15;;;17.60;99.90;;;;;;5018775;28;20230;-79
2022/07/06 02:57:20;;;;;;;4.47;3.80;;;17.60;99.90;;;;;;5004841;28;20222;-80
2022/07/06 03:00:11;;;;;;;6.15;3.80;;;17.60;99.90;;;;;;5005257;28;20666;-80
2022/07/06 03:03:02;;;;;;;4.20;3.65;;;17.60;99.90;;;;;;5000824;28;20226;-80
2022/07/06 03:05:51;;;;;;;4.10;3.70;;;17.50;99.90;;;;;;5015453;28;20690;-80
2022/07/06 03:08:40;;;;;;;4.45;3.05;;;17.50;99.90;;;;;;5015196;28;20232;-79
2022/07/06 03:11:30;;;;;;;4.57;3.83;;;17.50;99.90;;;;;;5019954;28;20603;-79
2022/07/06 03:14:19;;;;;;;4.32;3.50;;;17.50;99.90;;;;;;5005675;28;20218;-80
2022/07/06 03:17:10;;;;;;;4.15;3.70;;;17.40;99.90;;;;;;5009832;28;20226;-79
2022/07/06 03:20:01;;;;;;;4.70;3.20;;;17.50;99.90;;;;;;5006033;28;20246;-79
2022/07/06 03:22:50;;;;;;;5.00;3.55;;;17.50;99.90;;;;;;5005241;28;20771;-79
2022/07/06 03:25:39;;;;;;;4.35;3.42;;;17.50;99.90;;;;;;5021314;28;20248;-80
2022/07/06 03:28:28;;;;;;;4.50;3.30;;;17.50;99.90;;;;;;5000930;28;20237;-79
2022/07/06 03:31:16;;;;;;;3.63;3.33;;;17.50;99.90;;;;;;5025463;28;20245;-79
2022/07/06 03:34:06;;;;;;;7.00;3.67;;;17.50;99.90;;;;;;5002838;28;20234;-79
2022/07/06 03:36:57;;;;;;;4.20;3.78;;;17.50;99.90;;;;;;5017152;28;20214;-79
2022/07/06 03:39:48;;;;;;;4.13;3.17;;;17.50;99.90;;;;;;4990138;28;20976;-76
2022/07/06 03:42:37;;;;;;;5.25;3.65;;;17.50;99.90;;;;;;5002951;28;20238;-79
2022/07/06 03:45:30;;;;;;;5.50;3.35;;;17.60;99.90;;;;;;5008994;28;20328;-79
2022/07/06 03:48:20;;;;;;;7.00;3.63;;;17.70;99.90;;;;;;4997351;28;20230;-79
2022/07/06 03:51:10;;;;;;;5.82;3.90;;;17.60;99.90;;;;;;5018411;28;20916;-80
2022/07/06 03:54:00;;;;;;;4.40;3.10;;;17.70;99.90;;;;;;5001490;28;20586;-80
2022/07/06 03:56:50;;;;;;;4.00;3.15;;;17.60;99.90;;;;;;5006812;28;20717;-78
2022/07/06 03:59:40;;;;;;;5.90;3.28;;;17.70;99.90;;;;;;5006939;28;20664;-78
2022/07/06 04:02:29;;;;;;;4.13;2.72;;;17.70;99.90;;;;;;5021058;28;20234;-78
2022/07/06 04:05:20;;;;;;;4.72;3.00;;;17.70;99.90;;;;;;5007520;28;20305;-80
2022/07/06 04:08:10;;;;;;;3.00;2.80;;;17.80;99.90;;;;;;5023311;28;20229;-80
2022/07/06 04:11:06;;;;;;;6.47;2.95;;;17.70;99.90;;;;;;5012157;28;20604;-81
2022/07/06 04:13:56;;;;;;;3.33;2.80;;;17.70;99.90;;;;;;5002419;28;20320;-79
2022/07/06 04:16:45;;;;;;;3.28;2.88;;;17.70;99.90;;;;;;5009828;28;20221;-78
2022/07/06 04:19:34;;;;;;;3.53;3.08;;;17.60;99.90;;;;;;5006916;28;20312;-79
2022/07/06 04:22:22;;;;;;;3.15;2.85;;;17.60;99.90;;;;;;5009276;28;20230;-79
2022/07/06 04:25:11;;;;;;;3.33;3.03;;;17.60;99.90;;;;;;5019549;28;20592;-79
2022/07/06 04:28:02;;;;;;;4.55;2.72;;;17.50;99.90;;;;;;5012583;28;20229;-79
2022/07/06 04:30:53;;;;;;;3.58;2.50;;;17.50;99.90;;;;;;5014118;28;20600;-79
2022/07/06 04:33:44;;;;;;;2.75;2.55;;;17.40;99.90;;;;;;5004761;28;20378;-78
2022/07/06 04:36:33;;;;;;;2.80;2.60;;;17.40;99.90;;;;;;5002302;28;20725;-79
2022/07/06 04:39:22;;;;;;;3.78;2.88;;;17.50;99.90;;;;;;5004117;28;20842;-79
2022/07/06 04:42:10;;;;;;;4.38;3.40;;;17.50;99.90;;;;;;5007552;28;20240;-79
2022/07/06 04:45:00;;;;;;;3.70;2.70;;;17.60;99.90;;;;;;5020252;28;20226;-79
2022/07/06 04:47:50;;;;;;;5.40;3.08;;;17.70;99.90;;;;;;4996902;28;20588;-80
2022/07/06 04:50:43;;;;;;;4.43;2.85;;;17.70;99.90;;;;;;5010406;28;20213;-81
2022/07/06 04:53:37;;;;;;;4.35;3.13;;;17.70;99.90;;;;;;4999041;28;20351;-81
2022/07/06 04:56:27;;;;;;;4.68;2.60;;;17.80;99.90;;;;;;5002096;28;20222;-80
2022/07/06 04:59:17;;;;;;;5.57;3.47;;;17.70;99.90;;;;;;5020107;28;20726;-79
2022/07/06 05:02:08;;;;;;;4.80;2.80;;;17.70;99.90;;;;;;5014681;28;20660;-81
2022/07/06 05:04:57;;;;;;;5.00;3.03;;;17.60;99.90;;;;;;5019398;28;20279;-79
2022/07/06 05:07:47;;;;;;;3.50;3.20;;;17.70;99.90;;;;;;4994828;28;20229;-79
2022/07/06 05:10:36;;;;;;;4.95;2.95;;;17.60;99.90;;;;;;5004344;28;20234;-80
2022/07/06 05:13:25;;;;;;;4.03;3.13;;;17.60;99.90;;;;;;5014547;28;20218;-79
2022/07/06 05:16:14;;;;;;;3.92;3.17;;;17.60;99.90;;;;;;5007694;28;20225;-80
2022/07/06 05:19:04;;;;;;;4.25;3.03;;;17.60;99.90;;;;;;5010932;28;20249;-78
2022/07/06 05:21:53;;;;;;;3.92;2.92;;;17.80;99.90;;;;;;5014438;28;20222;-76
2022/07/06 05:24:42;;;;;;;4.05;3.42;;;17.80;99.90;;;;;;5002357;28;20252;-75
2022/07/06 05:27:31;;;;;;;4.82;3.25;;;18.00;99.90;;;;;;5016375;28;20761;-76
2022/07/06 05:30:20;;;;;;;3.50;3.20;;;17.90;99.90;;;;;;5000676;28;20222;-76
2022/07/06 05:33:09;;;;;;;6.13;3.85;;;18.10;99.90;;;;;;5007899;28;20631;-76
2022/07/06 05:36:00;;;;;;;4.15;3.20;;;18.20;99.90;;;;;;5003044;28;20213;-78
2022/07/06 05:38:49;;;;;;;3.00;2.63;;;18.30;99.90;;;;;;5011058;28;20322;-78
2022/07/06 05:41:38;;;;;;;3.90;3.00;;;18.30;99.90;;;;;;5014340;28;20311;-77
2022/07/06 05:44:28;;;;;;;3.17;2.88;;;18.40;99.90;;;;;;5016287;28;20569;-76
2022/07/06 05:50:23;;;;;;;3.92;2.80;;;18.70;99.90;;;;;;5021213;28;21579;-76
2022/07/06 05:53:17;;;;;;;3.83;2.70;;;18.70;99.90;;;;;;5008370;28;20704;-76
2022/07/06 05:56:10;;;;;;;3.50;2.60;;;18.40;99.90;;;;;;5004745;28;20214;-76
2022/07/06 05:58:59;;;;;;;4.88;2.58;;;18.40;99.90;;;;;;4999549;28;20253;-74
2022/07/06 06:01:50;;;;;;;3.00;2.78;;;18.40;99.90;;;;;;5016656;28;20236;-73
2022/07/06 06:04:43;;;;;;;2.97;2.70;;;18.30;99.90;;;;;;5013736;28;20228;-72
2022/07/06 06:07:31;;;;;;;3.95;2.70;;;18.20;99.90;;;;;;5021930;28;20297;-73
2022/07/06 06:10:23;;;;;;;6.35;3.00;;;18.20;99.90;;;;;;5020841;28;20689;-73
2022/07/06 06:13:14;;;;;;;3.22;2.92;;;18.40;99.90;;;;;;5020454;28;20229;-73
2022/07/06 06:16:03;;;;;;;5.47;3.13;;;18.50;99.90;;;;;;5004267;28;20233;-68
2022/07/06 06:18:51;;;;;;;4.38;2.90;;;18.70;99.90;;;;;;5019957;28;20292;-74
2022/07/06 06:21:40;;;;;;;4.03;2.88;;;18.70;99.90;;;;;;5013827;28;20917;-75
2022/07/06 06:24:28;;;;;;;4.75;3.20;;;18.90;99.90;;;;;;5021871;28;20232;-76
2022/07/06 06:27:19;;;;;;;3.67;3.38;;;19.00;99.90;;;;;;5028320;28;20231;-75
2022/07/06 06:30:09;;;;;;;6.28;3.95;;;18.80;99.90;;;;;;5021868;28;20257;-75
2022/07/06 06:33:11;;;;;;;3.90;3.60;;;18.70;99.90;;;;;;5022983;28;20343;-74
2022/07/06 06:36:00;;;;;;;7.72;3.90;;;18.70;99.90;;;;;;5009938;28;20285;-74
2022/07/06 06:38:48;;;;;;;6.95;3.85;;;18.70;99.90;;;;;;5031747;28;20232;-75
2022/07/06 06:41:43;;;;;;;5.40;3.53;;;18.70;99.90;;;;;;5022723;28;20706;-72
2022/07/06 06:44:33;;;;;;;7.40;4.22;;;18.70;99.90;;;;;;5027465;28;20221;-76
2022/07/06 06:47:22;;;;;;;4.57;3.97;;;18.80;99.90;;;;;;5024296;28;20225;-74
2022/07/06 06:50:10;;;;;;;8.02;4.60;;;19.10;99.90;;;;;;5018079;28;20229;-75
2022/07/06 06:52:59;;;;;;;7.80;4.53;;;19.50;99.90;;;;;;5020396;28;20222;-74
2022/07/06 06:55:48;;;;;;;7.50;5.35;;;19.70;99.90;;;;;;5023113;28;20223;-74
2022/07/06 06:58:36;;;;;;;8.00;4.95;;;19.80;99.90;;;;;;5013505;28;20229;-75
2022/07/06 07:01:46;;;;;;;8.15;5.15;;;20.00;99.90;;;;;;5016786;28;20688;-75
2022/07/06 07:04:43;;;;;;;9.52;5.50;;;20.10;99.90;;;;;;5011389;28;20232;-74
2022/07/06 07:07:32;;;;;;;8.80;5.50;;;20.00;99.90;;;;;;5019705;28;20224;-76
2022/07/06 07:10:21;;;;;;;9.13;5.72;;;20.10;99.90;;;;;;5030794;28;20225;-73
2022/07/06 07:13:10;;;;;;;7.10;6.00;;;20.20;99.90;;;;;;5008080;28;20226;-73
2022/07/06 07:15:59;;;;;;;7.78;5.55;;;20.40;99.90;;;;;;5033908;28;20223;-74
2022/07/06 07:18:49;;;;;;;13.82;6.90;;;20.70;99.90;;;;;;5010945;28;20705;-72
2022/07/06 07:21:38;;;;;;;9.88;6.18;;;21.10;99.90;;;;;;5020877;28;20226;-72
2022/07/06 07:24:27;;;;;;;8.43;5.47;;;21.40;99.90;;;;;;5022368;28;20352;-70
2022/07/06 07:27:15;;;;;;;7.38;5.93;;;21.30;99.90;;;;;;5004592;28;20826;-69
2022/07/06 07:30:05;;;;;;;8.65;5.78;;;20.90;99.90;;;;;;5017871;28;20233;-68
2022/07/06 07:32:55;;;;;;;16.48;7.45;;;21.00;99.90;;;;;;5008083;28;20221;-68
2022/07/06 07:35:48;;;;;;;22.00;6.53;;;21.40;99.90;;;;;;5019985;28;20237;-71
2022/07/06 07:38:37;;;;;;;12.95;5.75;;;21.10;99.90;;;;;;5017297;28;20880;-69
2022/07/06 07:41:25;;;;;;;36.33;7.43;;;20.80;99.90;;;;;;5014210;28;20229;-68
2022/07/06 07:44:14;;;;;;;8.38;4.63;;;21.60;99.90;;;;;;5023120;28;20680;-70
2022/07/06 07:47:03;;;;;;;4.70;4.28;;;21.50;99.90;;;;;;5019870;28;20353;-70
2022/07/06 07:49:51;;;;;;;7.13;4.60;;;21.30;99.90;;;;;;5021762;28;20248;-71
2022/07/06 07:52:41;;;;;;;5.97;4.13;;;21.00;99.90;;;;;;5018222;28;20231;-70
2022/07/06 07:55:30;;;;;;;5.32;3.35;;;21.70;99.90;;;;;;5014957;28;20747;-72
2022/07/06 07:58:29;;;;;;;3.58;2.70;;;22.70;99.90;;;;;;5019308;28;20237;-70
2022/07/06 08:01:18;;;;;;;6.47;3.10;;;23.20;99.90;;;;;;5019416;28;20221;-71
2022/07/06 08:04:08;;;;;;;5.43;2.78;;;23.10;99.90;;;;;;5019087;28;20234;-73
2022/07/06 08:06:57;;;;;;;4.30;2.97;;;23.80;99.90;;;;;;5022322;28;20488;-73
2022/07/06 08:09:50;;;;;;;4.57;3.38;;;23.50;99.90;;;;;;5008177;28;20264;-73
2022/07/06 08:12:39;;;;;;;4.43;2.95;;;22.80;99.90;;;;;;5015369;28;20349;-74
2022/07/06 08:15:33;;;;;;;4.28;3.40;;;22.40;99.90;;;;;;5013276;28;20239;-73
2022/07/06 08:18:21;;;;;;;4.97;3.38;;;22.50;99.90;;;;;;5021153;28;20635;-73
2022/07/06 08:21:11;;;;;;;6.05;3.38;;;22.90;99.90;;;;;;5002559;28;20356;-74
2022/07/06 08:24:15;;;;;;;6.38;2.30;;;24.10;99.90;;;;;;5020365;28;20304;-74
2022/07/06 08:27:05;;;;;;;6.35;2.45;;;24.50;99.90;;;;;;5023342;28;20340;-73
2022/07/06 08:29:54;;;;;;;3.88;2.10;;;24.70;99.90;;;;;;5020855;28;20797;-73
2022/07/06 08:32:43;;;;;;;5.38;1.50;;;25.20;99.90;;;;;;5019016;28;20286;-74
2022/07/06 08:35:52;;;;;;;4.25;1.80;;;25.50;99.90;;;;;;5019413;28;20220;-77
2022/07/06 08:38:41;;;;;;;6.18;2.05;;;25.70;99.90;;;;;;5024429;28;20291;-75
2022/07/06 08:41:30;;;;;;;3.80;1.70;;;25.80;98.90;;;;;;5008359;28;20236;-74
2022/07/06 08:44:20;;;;;;;3.90;1.90;;;25.40;99.90;;;;;;5009252;28;20226;-75
2022/07/06 08:47:10;;;;;;;4.55;1.85;;;26.30;98.60;;;;;;5022946;28;20642;-74
2022/07/06 08:50:04;;;;;;;9.57;2.42;;;25.00;99.90;;;;;;5019497;28;20311;-74
2022/07/06 08:52:54;;;;;;;10.52;1.95;;;25.00;99.90;;;;;;5007465;28;20325;-74
2022/07/06 08:55:42;;;;;;;2.85;1.40;;;24.60;99.90;;;;;;5020242;28;20680;-71
2022/07/06 08:58:35;;;;;;;4.97;2.20;;;24.40;99.90;;;;;;5026947;28;20229;-72
2022/07/06 09:01:25;;;;;;;11.68;1.90;;;24.30;99.90;;;;;;5014474;28;20249;-75
2022/07/06 09:04:16;;;;;;;5.47;1.50;;;25.20;99.90;;;;;;5017080;28;20236;-74
2022/07/06 09:07:05;;;;;;;2.25;1.60;;;24.60;99.90;;;;;;5020906;28;20233;-74
2022/07/06 09:09:55;;;;;;;3.00;1.50;;;24.20;99.70;;;;;;5019736;28;20224;-74
2022/07/06 09:12:43;;;;;;;2.75;1.40;;;26.10;96.40;;;;;;5010492;28;20252;-74
2022/07/06 09:15:32;;;;;;;1.70;1.10;;;27.30;88.70;;;;;;5022561;28;20335;-74
2022/07/06 09:18:23;;;;;;;3.47;1.13;;;28.90;83.20;;;;;;5019637;28;20217;-75
2022/07/06 09:21:15;;;;;;;7.57;1.30;;;29.80;75.30;;;;;;4998070;28;20586;-75
2022/07/06 09:24:08;;;;;;;5.82;1.50;;;30.40;73.00;;;;;;5014452;28;20220;-75
2022/07/06 09:26:57;;;;;;;2.50;1.20;;;30.30;62.00;;;;;;5019429;28;20591;-74
2022/07/06 09:29:46;;;;;;;1.50;1.20;;;31.30;68.80;;;;;;5023074;28;20228;-74
2022/07/06 09:32:40;;;;;;;5.38;1.38;;;32.20;59.60;;;;;;5020281;28;20565;-76
2022/07/06 09:35:31;;;;;;;2.22;1.33;;;30.80;57.80;;;;;;5021894;28;20317;-75
2022/07/06 09:38:20;;;;;;;2.33;1.02;;;30.90;58.10;;;;;;5014323;28;20217;-74
2022/07/06 09:41:09;;;;;;;2.90;1.13;;;31.10;59.00;;;;;;5019222;28;20451;-75
2022/07/06 09:43:58;;;;;;;1.83;1.10;;;29.70;62.00;;;;;;5024297;28;20676;-74
2022/07/06 09:46:48;;;;;;;2.42;1.00;;;29.60;67.70;;;;;;5017720;28;20291;-75
2022/07/06 09:49:37;;;;;;;5.90;1.20;;;28.40;64.50;;;;;;5021816;28;20249;-75
2022/07/06 09:52:34;;;;;;;1.90;1.10;;;28.40;66.70;;;;;;5016378;28;20703;-75
2022/07/06 09:55:23;;;;;;;2.88;1.67;;;27.40;71.20;;;;;;5020669;28;20365;-74
2022/07/06 09:58:12;;;;;;;2.70;1.27;;;26.70;72.90;;;;;;5018787;28;20232;-74
2022/07/06 10:01:01;;;;;;;1.83;0.88;;;26.00;72.60;;;;;;5016678;28;20399;-73
2022/07/06 10:03:49;;;;;;;2.35;1.30;;;25.60;70.60;;;;;;5022448;28;20561;-73
2022/07/06 10:06:38;;;;;;;5.05;1.50;;;27.20;75.40;;;;;;5022258;28;20228;-74
2022/07/06 10:09:29;;;;;;;6.40;1.50;;;31.80;63.50;;;;;;5020770;28;20229;-74
2022/07/06 10:12:21;;;;;;;4.72;1.05;;;34.50;55.10;;;;;;5033789;28;20296;-75
2022/07/06 10:15:10;;;;;;;4.30;1.40;;;35.40;52.00;;;;;;5009492;28;20224;-75
2022/07/06 10:18:00;;;;;;;0.95;0.80;;;37.30;48.80;;;;;;5015388;28;20216;-75
2022/07/06 10:20:48;;;;;;;3.17;0.73;;;37.60;49.30;;;;;;5019088;28;20306;-75
2022/07/06 10:23:38;;;;;;;2.03;0.82;;;38.40;46.60;;;;;;5015723;28;20879;-75
2022/07/06 10:26:28;;;;;;;2.67;1.05;;;38.90;46.10;;;;;;5015141;28;20217;-75
2022/07/06 10:29:17;;;;;;;2.70;1.15;;;37.20;45.10;;;;;;5011732;28;20237;-74
2022/07/06 10:32:07;;;;;;;2.78;0.80;;;38.30;45.40;;;;;;5026173;28;20231;-75
2022/07/06 10:34:56;;;;;;;2.60;0.88;;;37.60;43.10;;;;;;5017484;28;20668;-74
2022/07/06 10:37:45;;;;;;;2.22;0.82;;;37.40;42.80;;;;;;5019386;28;20255;-76
2022/07/06 10:43:48;;;;;;;2.88;0.80;;;30.90;48.80;;;;;;5007799;28;20299;-74
2022/07/06 10:46:37;;;;;;;3.83;1.00;;;29.10;53.50;;;;;;5010747;28;20224;-73
2022/07/06 10:49:27;;;;;;;2.83;1.13;;;28.40;55.20;;;;;;5024238;28;20848;-73
2022/07/06 10:52:59;;;;;;;4.72;0.88;;;30.70;55.30;;;;;;5004710;28;20222;-75
2022/07/06 10:55:52;;;;;;;3.00;0.95;;;30.50;50.50;;;;;;5018756;28;20249;-74
2022/07/06 10:58:50;;;;;;;4.00;1.10;;;29.00;53.00;;;;;;5017386;28;20315;-74
2022/07/06 11:01:40;;;;;;;2.03;0.93;;;33.80;53.10;;;;;;5012982;28;20725;-74
2022/07/06 11:04:35;;;;;;;4.13;1.05;;;36.30;46.90;;;;;;5022009;28;20233;-75
2022/07/06 11:07:23;;;;;;;4.93;1.05;;;33.60;49.10;;;;;;5015705;28;20348;-76
2022/07/06 11:10:12;;;;;;;3.20;1.00;;;31.00;48.60;;;;;;5026903;28;20221;-76
2022/07/06 11:13:05;;;;;;;1.48;0.75;;;29.50;51.80;;;;;;5015563;28;20227;-76
2022/07/06 11:16:02;;;;;;;2.90;1.13;;;28.40;53.10;;;;;;5020675;28;20216;-75
2022/07/06 11:19:00;;;;;;;2.35;1.00;;;30.50;51.10;;;;;;5018871;28;20224;-76
2022/07/06 11:21:51;;;;;;;1.83;0.95;;;34.10;49.00;;;;;;5018031;28;20213;-76
2022/07/06 11:24:41;;;;;;;1.60;0.90;;;35.00;46.10;;;;;;5017272;28;20829;-76
2022/07/06 11:27:30;;;;;;;4.57;0.90;;;36.40;45.50;;;;;;5026095;28;20618;-75
2022/07/06 11:30:18;;;;;;;1.50;0.73;;;38.50;45.10;;;;;;5019532;28;20228;-77
2022/07/06 11:33:09;;;;;;;1.50;0.90;;;38.70;41.70;;;;;;5017791;28;20224;-76
2022/07/06 11:36:13;;;;;;;1.65;1.00;;;33.30;43.60;;;;;;5016585;28;20734;-76
2022/07/06 11:39:01;;;;;;;1.65;0.90;;;31.00;46.90;;;;;;5015304;28;21010;-75
2022/07/06 11:41:50;;;;;;;5.70;1.27;;;29.00;50.50;;;;;;5019179;28;20736;-76
2022/07/06 11:44:40;;;;;;;1.90;1.02;;;28.60;55.10;;;;;;5022543;28;20218;-74
2022/07/06 11:47:32;;;;;;;3.28;1.02;;;;;;;;;;5017989;28;20240;-75
2022/07/06 11:50:22;;;;;;;1.10;0.90;;;27.50;55.50;;;;;;5007149;28;20237;-74
2022/07/06 11:53:11;;;;;;;1.60;0.98;;;27.60;58.10;;;;;;5006404;28;20237;-75
2022/07/06 11:56:03;;;;;;;1.80;1.02;;;31.40;67.30;;;;;;5023664;28;20291;-75
2022/07/06 11:58:53;;;;;;;1.80;1.20;;;33.10;51.60;;;;;;5019037;28;20368;-75
2022/07/06 12:01:44;;;;;;;1.90;0.98;;;34.30;50.20;;;;;;5019341;28;20574;-75
2022/07/06 12:04:34;;;;;;;2.80;1.35;;;34.10;48.30;;;;;;5020593;28;20739;-76
2022/07/06 12:07:24;;;;;;;2.20;0.88;;;34.40;47.80;;;;;;5005056;28;20671;-77
2022/07/06 12:10:12;;;;;;;2.83;0.73;;;33.70;46.20;;;;;;5024517;28;20221;-76
2022/07/06 12:13:04;;;;;;;0.77;0.73;;;31.80;48.30;;;;;;5016119;28;20661;-74
2022/07/06 12:15:54;;;;;;;2.78;1.30;;;30.20;50.70;;;;;;5019888;28;20221;-75
2022/07/06 12:18:43;;;;;;;1.83;1.10;;;30.00;51.20;;;;;;5010312;28;20237;-75
2022/07/06 12:21:33;;;;;;;3.08;0.90;;;32.40;48.70;;;;;;5015511;28;20226;-75
2022/07/06 12:24:27;;;;;;;5.13;1.08;;;30.90;49.70;;;;;;5018197;28;20362;-75
2022/07/06 12:27:17;;;;;;;2.15;0.90;;;29.30;52.60;;;;;;5020783;28;20231;-75
2022/07/06 12:30:13;;;;;;;1.10;0.70;;;27.90;53.80;;;;;;5012641;28;20236;-74
2022/07/06 12:33:15;;;;;;;4.75;0.90;;;27.50;56.70;;;;;;5013571;28;20500;-75
2022/07/06 12:36:14;;;;;;;2.53;1.00;;;27.80;55.30;;;;;;5014245;28;20229;-75
2022/07/06 12:39:11;;;;;;;2.30;1.45;;;28.00;58.10;;;;;;5010504;28;20221;-74
2022/07/06 12:42:06;;;;;;;1.90;1.23;;;30.10;55.10;;;;;;5003632;28;21812;-76
2022/07/06 12:44:54;;;;;;;2.53;1.27;;;32.40;51.00;;;;;;5020714;28;20213;-76
2022/07/06 12:47:58;;;;;;;2.25;1.10;;;32.80;48.80;;;;;;5009517;28;20229;-76
2022/07/06 12:50:48;;;;;;;3.75;1.15;;;32.20;47.40;;;;;;5012021;28;20229;-75
2022/07/06 12:53:36;;;;;;;1.92;0.93;;;31.40;49.80;;;;;;4998437;28;20237;-74
2022/07/06 12:56:25;;;;;;;3.05;0.82;;;29.80;50.40;;;;;;5013280;28;20217;-74
2022/07/06 12:59:23;;;;;;;0.82;0.80;;;28.50;51.30;;;;;;5021960;28;20316;-74
2022/07/06 13:02:20;;;;;;;2.90;0.90;;;28.00;54.60;;;;;;5005693;28;20217;-74
2022/07/06 13:05:28;;;;;;;0.95;0.88;;;27.60;55.10;;;;;;5004441;28;20245;-75
2022/07/06 13:08:17;;;;;;;3.90;1.02;;;27.20;57.60;;;;;;5013353;28;20225;-75
2022/07/06 13:11:05;;;;;;;1.48;0.93;;;27.30;57.00;;;;;;5016288;28;20232;-73
2022/07/06 13:13:54;;;;;;;11.45;1.90;;;27.20;55.50;;;;;;5005894;28;20248;-76
2022/07/06 13:16:49;;;;;;;5.30;1.10;;;27.30;56.50;;;;;;5005281;28;20565;-74
2022/07/06 13:19:37;;;;;;;2.88;1.30;;;27.50;56.20;;;;;;5006564;28;20228;-72
2022/07/06 13:22:26;;;;;;;1.02;1.00;;;27.50;57.50;;;;;;5022441;28;20232;-74
2022/07/06 13:25:15;;;;;;;1.92;1.17;;;;;;;;;;5006223;28;20229;-75
2022/07/06 13:28:04;;;;;;;1.38;0.80;;;;;;;;;;5006174;28;20217;-75
2022/07/06 13:30:52;;;;;;;5.82;1.25;;;25.90;57.20;;;;;;5015794;28;20260;-75
2022/07/06 13:33:43;;;;;;;2.03;1.10;;;25.70;59.00;;;;;;5012112;28;20300;-74
2022/07/06 13:36:31;;;;;;;3.80;1.17;;;25.80;59.10;;;;;;5024067;28;20730;-74
2022/07/06 13:39:27;;;;;;;2.50;1.10;;;25.70;57.90;;;;;;5023682;28;20221;-74
2022/07/06 13:42:15;;;;;;;4.15;1.30;;;25.60;60.20;;;;;;5015624;28;20225;-75
2022/07/06 13:45:05;;;;;;;2.38;1.27;;;25.60;59.60;;;;;;5005918;28;20237;-74
2022/07/06 13:47:53;;;;;;;6.90;1.30;;;25.70;61.40;;;;;;5016380;28;20225;-75
2022/07/06 13:50:43;;;;;;;4.28;1.52;;;26.00;61.10;;;;;;5009246;28;20233;-74
2022/07/06 13:53:32;;;;;;;2.65;0.90;;;26.10;59.90;;;;;;5003943;28;20256;-73
2022/07/06 13:56:21;;;;;;;3.83;1.00;;;26.20;58.90;;;;;;5018912;28;20266;-73
2022/07/06 13:59:09;;;;;;;4.10;0.98;;;26.10;60.50;;;;;;5014734;28;20225;-72
2022/07/06 14:01:58;;;;;;;2.10;1.13;;;26.10;59.90;;;;;;5018682;28;21987;-72
2022/07/06 14:04:47;;;;;;;38.03;4.95;;;26.00;61.00;;;;;;5007042;28;20221;-72
2022/07/06 14:07:41;;;;;;;8.10;1.23;;;25.80;62.30;;;;;;5007697;28;20217;-72
2022/07/06 14:10:30;;;;;;;4.32;1.30;;;25.70;61.90;;;;;;5014195;28;20605;-74
2022/07/06 14:13:18;;;;;;;2.83;1.20;;;25.70;62.40;;;;;;5017998;28;20225;-74
2022/07/06 14:16:10;;;;;;;3.92;1.30;;;25.70;63.10;;;;;;5036274;28;20241;-78
2022/07/06 14:18:59;;;;;;;2.65;1.00;;;25.50;61.80;;;;;;5005257;28;20249;-76
2022/07/06 14:21:48;;;;;;;4.07;1.65;;;25.30;64.20;;;;;;5013567;28;20361;-75
2022/07/06 14:24:38;;;;;;;4.60;1.55;;;25.00;66.10;;;;;;5007982;28;20603;-75
2022/07/06 14:27:27;;;;;;;4.15;1.30;;;24.90;65.60;;;;;;5011877;28;20234;-74
2022/07/06 14:30:16;;;;;;;6.88;1.90;;;24.70;65.50;;;;;;5015967;28;20233;-75
2022/07/06 14:33:07;;;;;;;3.95;1.23;;;24.50;67.70;;;;;;5023255;28;20221;-74
2022/07/06 14:35:56;;;;;;;1.70;1.10;;;24.50;71.00;;;;;;5024760;28;20206;-75
2022/07/06 14:38:44;;;;;;;2.33;1.23;;;24.20;67.30;;;;;;5021759;28;20675;-75
2022/07/06 14:41:35;;;;;;;1.95;1.10;;;23.90;66.70;;;;;;5025569;28;20244;-75
2022/07/06 14:44:27;;;;;;;5.10;1.30;;;24.00;69.40;;;;;;5019143;28;20324;-74
2022/07/06 14:47:16;;;;;;;3.22;1.05;;;24.10;69.20;;;;;;5009221;28;20584;-75
2022/07/06 14:50:05;;;;;;;4.90;1.60;;;24.20;68.80;;;;;;5003050;28;20371;-73
2022/07/06 14:52:54;;;;;;;3.53;1.05;;;24.20;67.80;;;;;;4990194;28;20649;-74
2022/07/06 14:55:43;;;;;;;2.53;1.00;;;24.10;68.50;;;;;;4998639;28;20615;-73
2022/07/06 14:58:36;;;;;;;2.65;0.90;;;24.30;68.00;;;;;;5006483;28;20705;-74